createdAt,value
2022-11-14T00:00:30.044Z,55.83
2022-11-14T00:01:30.045Z,47.66
2022-11-14T00:02:30.091Z,42.12
2022-11-14T00:03:30.045Z,43.24
2022-11-14T00:04:30.079Z,53.97
2022-11-14T00:05:30.002Z,49.32
2022-11-14T00:06:29.991Z,47.92
2022-11-14T00:07:30.035Z,42.49
2022-11-14T00:08:30.283Z,44.72
2022-11-14T00:09:29.967Z,45.98
2022-11-14T00:10:29.964Z,48.08
2022-11-14T00:11:29.953Z,50.15
2022-11-14T00:12:29.949Z,47.15
2022-11-14T00:13:29.963Z,57.99
2022-11-14T00:14:29.932Z,56.83
2022-11-14T00:15:29.923Z,53.62
2022-11-14T00:16:29.914Z,49.63
2022-11-14T00:17:29.912Z,55.25
2022-11-14T00:18:30.324Z,51.08
2022-11-14T00:19:29.889Z,43.23
2022-11-14T00:20:29.954Z,40.95
2022-11-14T00:21:29.873Z,54.56
2022-11-14T00:22:29.874Z,51.75
2022-11-14T00:23:29.889Z,50.93
2022-11-14T00:24:29.847Z,48.62
2022-11-14T00:25:29.844Z,46.83
2022-11-14T00:26:29.838Z,52.21
2022-11-14T00:27:29.829Z,47.78
2022-11-14T00:28:30.259Z,53.63
2022-11-14T00:29:29.816Z,57.49
2022-11-14T00:30:29.806Z,43.62
2022-11-14T00:31:29.797Z,52.80
2022-11-14T00:32:29.788Z,49.73
2022-11-14T00:33:29.807Z,57.17
2022-11-14T00:34:29.778Z,50.29
2022-11-14T00:35:29.771Z,49.19
2022-11-14T00:36:29.832Z,50.34
2022-11-14T00:37:29.752Z,59.82
2022-11-14T00:38:30.013Z,62.34
2022-11-14T00:39:29.738Z,46.83
2022-11-14T00:40:29.727Z,54.70
2022-11-14T00:41:29.719Z,50.59
2022-11-14T00:42:29.719Z,51.24
2022-11-14T00:43:29.736Z,56.69
2022-11-14T00:44:29.703Z,61.63
2022-11-14T00:45:29.689Z,54.52
2022-11-14T00:46:29.690Z,53.53
2022-11-14T00:47:29.673Z,53.10
2022-11-14T00:48:29.939Z,55.18
2022-11-14T00:49:29.659Z,45.22
2022-11-14T00:50:29.652Z,43.87
2022-11-14T00:51:29.644Z,48.53
2022-11-14T00:52:29.710Z,60.19
2022-11-14T00:53:29.661Z,57.43
2022-11-14T00:54:29.620Z,46.02
2022-11-14T00:55:29.619Z,53.78
2022-11-14T00:56:29.610Z,52.16
2022-11-14T00:57:29.600Z,55.58
2022-11-14T00:58:29.928Z,56.31
2022-11-14T00:59:29.584Z,56.31
2022-11-14T01:00:29.623Z,50.71
2022-11-14T01:01:29.571Z,54.82
2022-11-14T01:02:29.568Z,45.44
2022-11-14T01:03:29.583Z,43.04
2022-11-14T01:04:29.556Z,43.66
2022-11-14T01:05:29.545Z,46.67
2022-11-14T01:06:29.537Z,49.75
2022-11-14T01:07:29.527Z,64.40
2022-11-14T01:08:30.062Z,62.06
2022-11-14T01:09:29.552Z,55.33
2022-11-14T01:10:29.502Z,43.76
2022-11-14T01:11:29.492Z,49.43
2022-11-14T01:12:29.493Z,43.35
2022-11-14T01:13:29.510Z,46.32
2022-11-14T01:14:29.474Z,58.21
2022-11-14T01:15:29.465Z,48.76
2022-11-14T01:16:29.454Z,49.49
2022-11-14T01:17:29.447Z,53.21
2022-11-14T01:18:29.721Z,42.39
2022-11-14T01:19:29.436Z,44.62
2022-11-14T01:20:29.425Z,52.83
2022-11-14T01:21:29.420Z,55.86
2022-11-14T01:22:29.412Z,44.46
2022-11-14T01:23:29.436Z,49.60
2022-11-14T01:24:29.467Z,50.60
2022-11-14T01:25:29.397Z,55.14
2022-11-14T01:26:29.378Z,52.18
2022-11-14T01:27:29.370Z,51.04
2022-11-14T01:28:29.592Z,53.57
2022-11-14T01:29:29.383Z,45.75
2022-11-14T01:30:29.348Z,56.77
2022-11-14T01:31:29.335Z,55.36
2022-11-14T01:32:29.331Z,52.27
2022-11-14T01:33:29.322Z,55.38
2022-11-14T01:34:29.340Z,52.27
2022-11-14T01:35:29.306Z,56.91
2022-11-14T01:36:29.301Z,52.71
2022-11-14T01:37:29.288Z,50.00
2022-11-14T01:38:29.662Z,45.73
2022-11-14T01:39:29.302Z,54.58
2022-11-14T01:40:29.336Z,56.22
2022-11-14T01:41:29.255Z,48.90
2022-11-14T01:42:29.245Z,50.14
2022-11-14T01:43:29.240Z,55.26
2022-11-14T01:44:29.263Z,61.38
2022-11-14T01:45:29.223Z,53.00
2022-11-14T01:46:29.217Z,56.30
2022-11-14T01:47:29.211Z,59.05
2022-11-14T01:48:29.527Z,56.09
2022-11-14T01:49:29.219Z,49.02
2022-11-14T01:50:29.182Z,52.04
2022-11-14T01:51:29.175Z,42.95
2022-11-14T01:52:29.168Z,41.93
2022-11-14T01:53:29.164Z,44.21
2022-11-14T01:54:29.180Z,43.92
2022-11-14T01:55:29.146Z,43.56
2022-11-14T01:56:29.143Z,44.50
2022-11-14T01:57:29.136Z,51.49
2022-11-14T01:58:29.316Z,52.79
2022-11-14T01:59:29.142Z,53.50
2022-11-14T02:00:29.110Z,53.45
2022-11-14T02:01:29.150Z,46.01
2022-11-14T02:02:29.102Z,58.87
2022-11-14T02:03:29.084Z,52.96
2022-11-14T02:04:29.106Z,47.83
2022-11-14T02:05:29.073Z,48.09
2022-11-14T02:06:29.065Z,53.18
2022-11-14T02:07:29.130Z,57.53
2022-11-14T02:08:29.398Z,49.26
2022-11-14T02:09:29.066Z,48.55
2022-11-14T02:10:29.032Z,55.49
2022-11-14T02:11:29.020Z,63.92
2022-11-14T02:12:29.090Z,48.29
2022-11-14T02:13:29.007Z,46.13
2022-11-14T02:14:29.030Z,52.69
2022-11-14T02:15:28.994Z,44.63
2022-11-14T02:16:28.980Z,46.72
2022-11-14T02:17:30.781Z,53.66
2022-11-14T02:18:30.188Z,48.68
2022-11-14T02:19:28.993Z,56.64
2022-11-14T02:20:28.957Z,55.21
2022-11-14T02:21:28.954Z,49.96
2022-11-14T02:22:28.949Z,57.43
2022-11-14T02:23:28.938Z,52.97
2022-11-14T02:24:28.953Z,47.60
2022-11-14T02:25:28.921Z,59.28
2022-11-14T02:26:33.022Z,53.97
2022-11-14T02:27:29.908Z,51.32
2022-11-14T02:28:29.413Z,58.61
2022-11-14T02:29:28.915Z,55.30
2022-11-14T02:30:28.879Z,61.64
2022-11-14T02:31:28.881Z,55.79
2022-11-14T02:32:32.677Z,57.48
2022-11-14T02:33:29.857Z,60.12
2022-11-14T02:34:28.870Z,63.02
2022-11-14T02:35:28.866Z,61.18
2022-11-14T02:36:28.833Z,54.38
2022-11-14T02:37:28.833Z,52.66
2022-11-14T02:38:29.014Z,55.88
2022-11-14T02:39:28.812Z,62.74
2022-11-14T02:40:28.831Z,49.44
2022-11-14T02:41:28.801Z,54.48
2022-11-14T02:42:28.795Z,51.81
2022-11-14T02:43:28.786Z,51.88
2022-11-14T02:44:28.850Z,52.82
2022-11-14T02:45:28.767Z,49.65
2022-11-14T02:46:28.788Z,49.62
2022-11-14T02:47:28.755Z,57.59
2022-11-14T02:48:30.058Z,45.94
2022-11-14T02:49:28.738Z,47.87
2022-11-14T02:50:28.761Z,57.57
2022-11-14T02:51:28.726Z,55.41
2022-11-14T02:52:28.713Z,51.99
2022-11-14T02:53:28.707Z,60.37
2022-11-14T02:54:28.699Z,63.76
2022-11-14T02:55:28.727Z,58.36
2022-11-14T02:56:28.686Z,60.36
2022-11-14T02:57:28.679Z,65.09
2022-11-14T02:58:28.942Z,61.76
2022-11-14T02:59:28.663Z,54.67
2022-11-14T03:00:28.787Z,55.60
2022-11-14T03:01:28.687Z,58.77
2022-11-14T03:02:28.636Z,54.01
2022-11-14T03:03:28.627Z,62.44
2022-11-14T03:04:28.618Z,54.12
2022-11-14T03:05:28.611Z,57.68
2022-11-14T03:06:28.627Z,59.90
2022-11-14T03:07:28.631Z,55.28
2022-11-14T03:08:28.922Z,61.39
2022-11-14T03:09:28.579Z,57.18
2022-11-14T03:10:28.571Z,59.72
2022-11-14T03:11:28.592Z,52.74
2022-11-14T03:12:28.561Z,55.15
2022-11-14T03:13:28.566Z,52.91
2022-11-14T03:14:28.541Z,55.74
2022-11-14T03:15:28.535Z,58.23
2022-11-14T03:16:28.615Z,59.91
2022-11-14T03:17:29.519Z,61.80
2022-11-14T03:18:28.777Z,51.34
2022-11-14T03:19:28.508Z,59.42
2022-11-14T03:20:28.496Z,58.38
2022-11-14T03:21:28.515Z,51.81
2022-11-14T03:22:28.492Z,50.81
2022-11-14T03:23:28.473Z,61.45
2022-11-14T03:24:28.468Z,58.94
2022-11-14T03:25:28.465Z,57.15
2022-11-14T03:26:28.482Z,46.12
2022-11-14T03:27:28.446Z,47.93
2022-11-14T03:28:28.709Z,56.10
2022-11-14T03:29:28.431Z,52.57
2022-11-14T03:30:28.422Z,58.31
2022-11-14T03:31:28.473Z,51.25
2022-11-14T03:32:28.484Z,54.52
2022-11-14T03:33:28.400Z,59.79
2022-11-14T03:34:28.397Z,58.98
2022-11-14T03:35:28.386Z,63.53
2022-11-14T03:36:28.404Z,61.52
2022-11-14T03:37:28.370Z,57.56
2022-11-14T03:38:28.737Z,50.91
2022-11-14T03:39:28.357Z,58.37
2022-11-14T03:40:28.352Z,63.15
2022-11-14T03:41:28.371Z,62.36
2022-11-14T03:42:28.331Z,53.47
2022-11-14T03:43:28.325Z,55.41
2022-11-14T03:44:28.322Z,58.42
2022-11-14T03:45:28.315Z,57.03
2022-11-14T03:46:28.340Z,55.19
2022-11-14T03:47:28.300Z,60.39
2022-11-14T03:48:29.509Z,58.04
2022-11-14T03:49:28.285Z,60.39
2022-11-14T03:50:28.281Z,56.44
2022-11-14T03:51:28.291Z,57.04
2022-11-14T03:52:28.260Z,60.07
2022-11-14T03:53:28.257Z,60.05
2022-11-14T03:54:28.244Z,60.98
2022-11-14T03:55:29.229Z,62.61
2022-11-14T03:56:29.264Z,59.36
2022-11-14T03:57:28.222Z,60.90
2022-11-14T03:58:28.716Z,62.73
2022-11-14T03:59:28.221Z,64.63
2022-11-14T04:00:28.304Z,59.43
2022-11-14T04:01:28.276Z,59.65
2022-11-14T04:02:28.212Z,60.59
2022-11-14T04:03:28.184Z,66.23
2022-11-14T04:04:28.246Z,63.42
2022-11-14T04:05:28.164Z,63.77
2022-11-14T04:06:28.158Z,65.01
2022-11-14T04:07:28.234Z,63.48
2022-11-14T04:08:28.385Z,62.09
2022-11-14T04:09:28.137Z,59.26
2022-11-14T04:10:28.128Z,61.41
2022-11-14T04:11:28.122Z,63.49
2022-11-14T04:12:28.139Z,57.71
2022-11-14T04:13:28.109Z,61.98
2022-11-14T04:14:28.100Z,67.66
2022-11-14T04:15:28.092Z,62.05
2022-11-14T04:16:28.083Z,62.84
2022-11-14T04:17:28.100Z,60.79
2022-11-14T04:18:28.494Z,65.12
2022-11-14T04:19:28.065Z,64.18
2022-11-14T04:20:28.127Z,63.85
2022-11-14T04:21:28.049Z,62.04
2022-11-14T04:22:28.067Z,62.54
2022-11-14T04:23:28.033Z,63.55
2022-11-14T04:24:28.032Z,61.96
2022-11-14T04:25:28.015Z,63.29
2022-11-14T04:26:28.015Z,62.67
2022-11-14T04:27:28.041Z,61.35
2022-11-14T04:28:28.263Z,60.96
2022-11-14T04:29:27.993Z,63.37
2022-11-14T04:30:33.509Z,62.03
2022-11-14T04:31:29.979Z,64.69
2022-11-14T04:32:27.998Z,66.52
2022-11-14T04:33:27.962Z,62.34
2022-11-14T04:34:27.953Z,64.42
2022-11-14T04:35:27.955Z,63.43
2022-11-14T04:36:28.014Z,62.26
2022-11-14T04:37:27.972Z,62.51
2022-11-14T04:38:28.365Z,65.83
2022-11-14T04:39:27.923Z,67.96
2022-11-14T04:40:27.914Z,62.76
2022-11-14T04:41:27.903Z,62.88
2022-11-14T04:42:27.917Z,63.94
2022-11-14T04:43:27.890Z,65.15
2022-11-14T04:44:27.882Z,59.14
2022-11-14T04:45:27.956Z,63.47
2022-11-14T04:46:27.960Z,64.47
2022-11-14T04:47:27.889Z,64.72
2022-11-14T04:48:28.205Z,66.43
2022-11-14T04:49:27.849Z,66.11
2022-11-14T04:50:27.837Z,60.61
2022-11-14T04:51:27.835Z,61.84
2022-11-14T04:52:27.924Z,65.03
2022-11-14T04:53:27.819Z,63.43
2022-11-14T04:54:27.809Z,61.98
2022-11-14T04:55:27.797Z,62.72
2022-11-14T04:56:27.798Z,64.11
2022-11-14T04:57:27.821Z,58.25
2022-11-14T04:58:28.123Z,66.90
2022-11-14T04:59:27.770Z,66.10
2022-11-14T05:00:27.765Z,65.24
2022-11-14T05:01:27.815Z,59.23
2022-11-14T05:02:27.796Z,60.05
2022-11-14T05:03:27.736Z,61.24
2022-11-14T05:04:27.748Z,67.77
2022-11-14T05:05:27.718Z,62.01
2022-11-14T05:06:27.715Z,65.77
2022-11-14T05:07:27.815Z,65.68
2022-11-14T05:08:28.189Z,63.76
2022-11-14T05:09:27.697Z,64.29
2022-11-14T05:10:27.685Z,64.52
2022-11-14T05:11:29.364Z,65.74
2022-11-14T05:12:28.701Z,65.18
2022-11-14T05:13:27.673Z,65.77
2022-11-14T05:14:27.664Z,66.97
2022-11-14T05:15:27.675Z,65.30
2022-11-14T05:16:27.650Z,65.79
2022-11-14T05:17:27.671Z,63.33
2022-11-14T05:18:27.828Z,66.45
2022-11-14T05:19:27.627Z,64.48
2022-11-14T05:20:27.616Z,66.03
2022-11-14T05:21:27.617Z,63.83
2022-11-14T05:22:27.634Z,67.87
2022-11-14T05:23:27.597Z,64.42
2022-11-14T05:24:27.597Z,66.73
2022-11-14T05:25:27.586Z,64.10
2022-11-14T05:26:27.585Z,63.38
2022-11-14T05:27:27.596Z,65.91
2022-11-14T05:28:27.938Z,65.40
2022-11-14T05:29:27.559Z,69.46
2022-11-14T05:30:27.554Z,64.30
2022-11-14T05:31:27.538Z,66.60
2022-11-14T05:32:27.563Z,64.22
2022-11-14T05:33:27.527Z,65.89
2022-11-14T05:34:27.520Z,68.09
2022-11-14T05:35:27.512Z,64.78
2022-11-14T05:36:27.507Z,65.08
2022-11-14T05:37:27.524Z,65.10
2022-11-14T05:38:27.763Z,68.14
2022-11-14T05:39:27.481Z,68.17
2022-11-14T05:40:27.479Z,67.39
2022-11-14T05:41:27.472Z,68.34
2022-11-14T05:42:27.487Z,67.05
2022-11-14T05:43:27.463Z,65.56
2022-11-14T05:44:27.445Z,67.14
2022-11-14T05:45:27.438Z,65.83
2022-11-14T05:46:27.435Z,67.22
2022-11-14T05:47:27.445Z,68.55
2022-11-14T05:48:27.904Z,68.12
2022-11-14T05:49:27.404Z,69.11
2022-11-14T05:50:27.410Z,67.44
2022-11-14T05:51:27.399Z,66.28
2022-11-14T05:52:27.413Z,69.26
2022-11-14T05:53:27.376Z,69.60
2022-11-14T05:54:27.369Z,64.17
2022-11-14T05:55:27.364Z,66.29
2022-11-14T05:56:27.358Z,65.71
2022-11-14T05:57:27.380Z,67.43
2022-11-14T05:58:27.722Z,67.42
2022-11-14T05:59:27.330Z,65.21
2022-11-14T06:00:27.325Z,63.57
2022-11-14T06:01:27.316Z,66.49
2022-11-14T06:02:27.378Z,68.02
2022-11-14T06:03:27.306Z,68.98
2022-11-14T06:04:27.294Z,68.49
2022-11-14T06:05:27.287Z,65.87
2022-11-14T06:06:27.279Z,66.27
2022-11-14T06:07:27.326Z,67.29
2022-11-14T06:08:27.569Z,65.54
2022-11-14T06:09:27.250Z,65.89
2022-11-14T06:10:27.249Z,67.06
2022-11-14T06:11:27.250Z,67.86
2022-11-14T06:12:27.292Z,67.66
2022-11-14T06:13:27.233Z,68.43
2022-11-14T06:14:27.218Z,68.65
2022-11-14T06:15:27.211Z,65.95
2022-11-14T06:16:27.208Z,67.20
2022-11-14T06:17:27.224Z,66.79
2022-11-14T06:18:27.416Z,65.03
2022-11-14T06:19:27.190Z,65.20
2022-11-14T06:20:27.175Z,67.27
2022-11-14T06:21:27.162Z,69.68
2022-11-14T06:22:27.184Z,66.03
2022-11-14T06:23:27.155Z,64.84
2022-11-14T06:24:27.145Z,65.54
2022-11-14T06:25:27.121Z,66.72
2022-11-14T06:26:28.126Z,65.66
2022-11-14T06:27:27.140Z,63.86
2022-11-14T06:28:27.283Z,63.13
2022-11-14T06:29:30.205Z,65.44
2022-11-14T06:30:28.106Z,64.26
2022-11-14T06:31:27.098Z,65.41
2022-11-14T06:32:27.114Z,63.67
2022-11-14T06:33:27.190Z,62.99
2022-11-14T06:34:27.071Z,64.84
2022-11-14T06:35:27.059Z,64.43
2022-11-14T06:36:27.051Z,64.97
2022-11-14T06:37:31.383Z,62.89
2022-11-14T06:38:29.363Z,64.73
2022-11-14T06:39:27.026Z,62.69
2022-11-14T06:40:27.026Z,61.89
2022-11-14T06:41:27.011Z,65.23
2022-11-14T06:42:27.027Z,65.19
2022-11-14T06:43:26.994Z,64.38
2022-11-14T06:44:30.629Z,65.95
2022-11-14T06:45:27.987Z,65.88
2022-11-14T06:46:26.984Z,62.85
2022-11-14T06:47:27.022Z,62.98
2022-11-14T06:48:27.175Z,63.44
2022-11-14T06:49:26.955Z,64.54
2022-11-14T06:50:26.952Z,65.68
2022-11-14T06:51:26.940Z,61.86
2022-11-14T06:52:26.957Z,62.23
2022-11-14T06:53:26.949Z,63.59
2022-11-14T06:54:26.921Z,64.31
2022-11-14T06:55:26.914Z,64.11
2022-11-14T06:56:26.910Z,62.57
2022-11-14T06:57:26.918Z,65.04
2022-11-14T06:58:26.948Z,63.43
2022-11-14T06:59:26.889Z,64.72
2022-11-14T07:00:26.883Z,68.05
2022-11-14T07:01:26.873Z,65.89
2022-11-14T07:02:26.896Z,65.54
2022-11-14T07:03:26.910Z,66.30
2022-11-14T07:04:26.847Z,66.18
2022-11-14T07:05:26.841Z,64.71
2022-11-14T07:06:26.837Z,64.26
2022-11-14T07:07:28.706Z,61.97
2022-11-14T07:08:27.823Z,63.73
2022-11-14T07:09:26.814Z,66.82
2022-11-14T07:10:26.825Z,65.14
2022-11-14T07:11:26.798Z,63.66
2022-11-14T07:12:26.827Z,65.04
2022-11-14T07:13:26.781Z,67.17
2022-11-14T07:14:26.781Z,67.04
2022-11-14T07:15:26.773Z,65.34
2022-11-14T07:16:26.760Z,65.66
2022-11-14T07:17:30.946Z,64.74
2022-11-14T07:18:27.886Z,64.27
2022-11-14T07:19:26.745Z,66.44
2022-11-14T07:20:26.733Z,67.12
2022-11-14T07:21:26.727Z,66.60
2022-11-14T07:22:26.739Z,64.84
2022-11-14T07:23:26.712Z,64.61
2022-11-14T07:24:26.708Z,65.80
2022-11-14T07:25:26.692Z,64.89
2022-11-14T07:26:26.684Z,65.88
2022-11-14T07:27:26.700Z,64.89
2022-11-14T07:28:26.667Z,67.58
2022-11-14T07:29:26.670Z,68.15
2022-11-14T07:30:26.679Z,63.70
2022-11-14T07:31:26.646Z,66.36
2022-11-14T07:32:26.668Z,65.13
2022-11-14T07:33:26.639Z,63.31
2022-11-14T07:34:26.636Z,66.48
2022-11-14T07:35:26.626Z,65.34
2022-11-14T07:36:26.609Z,65.37
2022-11-14T07:37:26.634Z,65.21
2022-11-14T07:38:26.604Z,66.57
2022-11-14T07:39:26.592Z,63.06
2022-11-14T07:40:26.585Z,67.12
2022-11-14T07:41:26.575Z,63.38
2022-11-14T07:42:26.589Z,62.07
2022-11-14T07:43:26.555Z,62.05
2022-11-14T07:44:26.549Z,62.75
2022-11-14T07:45:26.548Z,61.78
2022-11-14T07:46:26.540Z,61.83
2022-11-14T07:47:26.556Z,61.58
2022-11-14T07:48:26.653Z,62.19
2022-11-14T07:49:26.509Z,60.64
2022-11-14T07:50:26.498Z,63.69
2022-11-14T07:51:26.494Z,64.96
2022-11-14T07:52:26.527Z,58.75
2022-11-14T07:53:26.485Z,62.44
2022-11-14T07:54:26.473Z,61.37
2022-11-14T07:55:26.460Z,66.92
2022-11-14T07:56:26.449Z,62.96
2022-11-14T07:57:27.470Z,63.69
2022-11-14T07:58:26.445Z,60.27
2022-11-14T07:59:26.442Z,61.78
2022-11-14T08:00:26.426Z,61.94
2022-11-14T08:01:26.463Z,58.38
2022-11-14T08:02:26.417Z,61.40
2022-11-14T08:03:26.433Z,62.24
2022-11-14T08:04:26.390Z,64.65
2022-11-14T08:05:26.389Z,63.55
2022-11-14T08:06:27.142Z,60.22
2022-11-14T08:07:26.399Z,59.07
2022-11-14T08:08:26.404Z,60.87
2022-11-14T08:09:26.353Z,60.39
2022-11-14T08:10:29.738Z,61.69
2022-11-14T08:11:35.158Z,59.66
2022-11-14T08:12:28.332Z,59.06
2022-11-14T08:13:32.244Z,59.30
2022-11-14T08:14:28.325Z,60.70
2022-11-14T08:15:26.304Z,58.37
2022-11-14T08:16:26.293Z,56.24
2022-11-14T08:17:26.296Z,61.95
2022-11-14T08:18:26.454Z,61.73
2022-11-14T08:19:26.280Z,63.36
2022-11-14T08:20:26.325Z,62.52
2022-11-14T08:21:26.263Z,62.67
2022-11-14T08:22:26.253Z,64.48
2022-11-14T08:23:26.272Z,61.76
2022-11-14T08:24:26.237Z,63.06
2022-11-14T08:25:26.270Z,61.44
2022-11-14T08:26:31.482Z,61.35
2022-11-14T08:27:28.214Z,61.95
2022-11-14T08:28:26.235Z,61.49
2022-11-14T08:29:26.197Z,62.62
2022-11-14T08:30:26.261Z,64.37
2022-11-14T08:31:26.179Z,61.55
2022-11-14T08:32:26.178Z,62.89
2022-11-14T08:33:26.195Z,61.52
2022-11-14T08:34:26.162Z,64.04
2022-11-14T08:35:26.178Z,63.88
2022-11-14T08:36:26.144Z,62.17
2022-11-14T08:37:26.132Z,64.03
2022-11-14T08:38:26.158Z,63.14
2022-11-14T08:39:26.119Z,63.34
2022-11-14T08:40:26.249Z,63.99
2022-11-14T08:41:26.113Z,64.55
2022-11-14T08:42:26.103Z,60.75
2022-11-14T08:43:26.126Z,63.03
2022-11-14T08:44:26.084Z,59.34
2022-11-14T08:45:26.074Z,63.72
2022-11-14T08:46:26.072Z,61.78
2022-11-14T08:47:26.065Z,65.03
2022-11-14T08:48:26.078Z,62.89
2022-11-14T08:49:26.063Z,62.97
2022-11-14T08:50:26.046Z,61.31
2022-11-14T08:51:26.036Z,62.56
2022-11-14T08:52:26.023Z,61.37
2022-11-14T08:53:26.057Z,62.46
2022-11-14T08:54:26.041Z,63.62
2022-11-14T08:55:26.004Z,61.38
2022-11-14T08:56:25.995Z,59.88
2022-11-14T08:57:25.989Z,59.82
2022-11-14T08:58:26.012Z,63.02
2022-11-14T08:59:25.972Z,59.79
2022-11-14T09:00:25.977Z,58.77
2022-11-14T09:01:25.983Z,60.87
2022-11-14T09:02:25.949Z,58.74
2022-11-14T09:03:26.018Z,60.23
2022-11-14T09:04:25.994Z,63.34
2022-11-14T09:05:25.922Z,61.97
2022-11-14T09:06:25.910Z,62.20
2022-11-14T09:07:25.965Z,58.58
2022-11-14T09:08:25.941Z,60.11
2022-11-14T09:09:25.891Z,60.47
2022-11-14T09:10:25.886Z,62.94
2022-11-14T09:11:25.879Z,61.88
2022-11-14T09:12:25.872Z,60.70
2022-11-14T09:13:25.884Z,57.48
2022-11-14T09:14:25.856Z,61.57
2022-11-14T09:15:25.842Z,61.84
2022-11-14T09:16:25.837Z,62.60
2022-11-14T09:17:25.858Z,61.55
2022-11-14T09:18:25.851Z,60.03
2022-11-14T09:19:25.810Z,62.32
2022-11-14T09:20:31.549Z,61.03
2022-11-14T09:21:27.797Z,60.30
2022-11-14T09:22:25.791Z,58.98
2022-11-14T09:23:25.814Z,62.08
2022-11-14T09:24:25.776Z,60.48
2022-11-14T09:25:25.858Z,59.20
2022-11-14T09:26:25.760Z,60.46
2022-11-14T09:27:25.755Z,59.34
2022-11-14T09:28:25.768Z,58.68
2022-11-14T09:29:25.747Z,59.29
2022-11-14T09:30:25.734Z,59.01
2022-11-14T09:31:25.724Z,58.99
2022-11-14T09:32:25.714Z,62.00
2022-11-14T09:33:25.736Z,60.31
2022-11-14T09:34:25.702Z,57.33
2022-11-14T09:35:25.697Z,60.31
2022-11-14T09:36:25.682Z,56.52
2022-11-14T09:37:25.682Z,60.99
2022-11-14T09:38:25.696Z,56.84
2022-11-14T09:39:25.670Z,62.32
2022-11-14T09:40:25.648Z,61.70
2022-11-14T09:41:25.644Z,56.97
2022-11-14T09:42:25.640Z,61.21
2022-11-14T09:43:25.651Z,62.16
2022-11-14T09:44:25.625Z,60.87
2022-11-14T09:45:25.614Z,60.91
2022-11-14T09:46:26.588Z,61.88
2022-11-14T09:47:25.593Z,62.49
2022-11-14T09:48:25.607Z,60.20
2022-11-14T09:49:25.584Z,63.63
2022-11-14T09:50:26.133Z,61.86
2022-11-14T09:51:26.575Z,61.80
2022-11-14T09:52:25.560Z,61.21
2022-11-14T09:53:25.569Z,61.04
2022-11-14T09:54:25.545Z,62.08
2022-11-14T09:55:25.548Z,59.59
2022-11-14T09:56:25.530Z,59.79
2022-11-14T09:57:25.524Z,60.90
2022-11-14T09:58:25.538Z,62.06
2022-11-14T09:59:25.504Z,59.86
2022-11-14T10:00:25.483Z,60.15
2022-11-14T10:01:26.523Z,60.50
2022-11-14T10:02:25.514Z,58.22
2022-11-14T10:03:25.493Z,63.79
2022-11-14T10:04:25.458Z,61.78
2022-11-14T10:05:25.450Z,61.13
2022-11-14T10:06:25.452Z,60.92
2022-11-14T10:07:25.489Z,58.54
2022-11-14T10:08:25.453Z,59.32
2022-11-14T10:09:30.233Z,61.62
2022-11-14T10:10:27.418Z,61.74
2022-11-14T10:11:25.405Z,64.41
2022-11-14T10:12:25.398Z,62.77
2022-11-14T10:13:25.413Z,61.23
2022-11-14T10:14:25.379Z,62.67
2022-11-14T10:15:28.596Z,60.17
2022-11-14T10:16:26.365Z,58.35
2022-11-14T10:17:25.378Z,59.36
2022-11-14T10:18:25.348Z,62.31
2022-11-14T10:19:25.346Z,61.31
2022-11-14T10:20:25.343Z,56.93
2022-11-14T10:21:25.330Z,61.28
2022-11-14T10:22:25.359Z,62.40
2022-11-14T10:23:25.313Z,59.15
2022-11-14T10:24:25.300Z,61.15
2022-11-14T10:25:25.306Z,60.06
2022-11-14T10:26:25.286Z,62.84
2022-11-14T10:27:25.286Z,62.60
2022-11-14T10:28:25.305Z,60.77
2022-11-14T10:29:25.269Z,65.41
2022-11-14T10:30:25.277Z,58.99
2022-11-14T10:31:25.248Z,59.09
2022-11-14T10:32:25.267Z,60.36
2022-11-14T10:33:25.239Z,59.88
2022-11-14T10:34:25.233Z,63.87
2022-11-14T10:35:25.214Z,59.93
2022-11-14T10:36:25.245Z,61.68
2022-11-14T10:37:25.203Z,60.94
2022-11-14T10:38:25.233Z,63.42
2022-11-14T10:39:25.198Z,63.14
2022-11-14T10:40:25.210Z,60.57
2022-11-14T10:41:49.943Z,63.02
2022-11-14T10:42:27.163Z,61.71
2022-11-14T10:43:25.175Z,60.09
2022-11-14T10:44:25.146Z,61.99
2022-11-14T10:45:25.131Z,60.87
2022-11-14T10:46:25.157Z,63.84
2022-11-14T10:47:25.116Z,58.99
2022-11-14T10:48:25.105Z,62.59
2022-11-14T10:49:25.103Z,60.81
2022-11-14T10:50:25.092Z,60.75
2022-11-14T10:51:25.116Z,57.72
2022-11-14T10:52:25.072Z,58.66
2022-11-14T10:53:25.070Z,62.97
2022-11-14T10:54:25.055Z,59.11
2022-11-14T10:55:49.669Z,63.58
2022-11-14T10:56:27.065Z,62.81
2022-11-14T10:57:25.035Z,60.17
2022-11-14T10:58:25.028Z,61.09
2022-11-14T10:59:25.026Z,62.54
2022-11-14T11:00:25.013Z,63.45
2022-11-14T11:01:25.063Z,64.34
2022-11-14T11:02:25.002Z,65.51
2022-11-14T11:03:24.996Z,59.94
2022-11-14T11:04:25.007Z,62.95
2022-11-14T11:05:24.973Z,66.87
2022-11-14T11:06:24.991Z,62.42
2022-11-14T11:07:24.993Z,62.40
2022-11-14T11:08:47.063Z,59.18
2022-11-14T11:09:27.007Z,59.58
2022-11-14T11:10:24.933Z,59.17
2022-11-14T11:11:24.950Z,58.02
2022-11-14T11:12:24.931Z,61.35
2022-11-14T11:13:24.908Z,63.44
2022-11-14T11:14:24.900Z,61.31
2022-11-14T11:15:24.905Z,62.71
2022-11-14T11:16:24.911Z,61.37
2022-11-14T11:17:29.513Z,58.59
2022-11-14T11:18:27.090Z,63.09
2022-11-14T11:19:24.860Z,56.13
2022-11-14T11:20:24.860Z,61.19
2022-11-14T11:21:24.927Z,62.16
2022-11-14T11:22:24.843Z,62.48
2022-11-14T11:23:24.836Z,64.33
2022-11-14T11:24:24.827Z,59.89
2022-11-14T11:25:24.814Z,62.22
2022-11-14T11:26:24.833Z,62.69
2022-11-14T11:27:24.801Z,59.62
2022-11-14T11:28:24.801Z,52.56
2022-11-14T11:29:24.794Z,61.96
2022-11-14T11:30:24.777Z,62.44
2022-11-14T11:31:24.790Z,60.14
2022-11-14T11:32:24.819Z,60.82
2022-11-14T11:33:24.756Z,61.25
2022-11-14T11:34:24.746Z,62.16
2022-11-14T11:35:24.739Z,62.34
2022-11-14T11:36:24.752Z,59.27
2022-11-14T11:37:24.774Z,61.51
2022-11-14T11:38:24.714Z,59.92
2022-11-14T11:39:24.709Z,60.06
2022-11-14T11:40:24.700Z,62.58
2022-11-14T11:42:42.874Z,60.88
2022-11-14T11:43:40.328Z,63.77
2022-11-14T11:44:26.765Z,61.60
2022-11-14T11:45:24.662Z,61.32
2022-11-14T11:46:24.676Z,60.79
2022-11-14T11:47:24.629Z,61.18
2022-11-14T11:48:25.644Z,61.77
2022-11-14T11:49:24.625Z,64.77
2022-11-14T11:50:24.621Z,61.58
2022-11-14T11:51:24.637Z,65.51
2022-11-14T11:52:24.604Z,63.78
2022-11-14T11:53:24.591Z,63.25
2022-11-14T11:54:24.588Z,64.27
2022-11-14T11:55:24.584Z,62.27
2022-11-14T11:56:24.598Z,63.79
2022-11-14T11:57:24.561Z,58.65
2022-11-14T11:58:24.555Z,64.90
2022-11-14T11:59:24.551Z,60.13
2022-11-14T12:00:24.537Z,63.30
2022-11-14T12:01:24.574Z,61.39
2022-11-14T12:02:24.648Z,61.32
2022-11-14T12:03:24.652Z,61.66
2022-11-14T12:04:24.523Z,62.82
2022-11-14T12:05:24.498Z,61.54
2022-11-14T12:06:24.518Z,63.25
2022-11-14T12:07:24.544Z,63.04
2022-11-14T12:08:24.481Z,60.38
2022-11-14T12:09:29.514Z,62.74
2022-11-14T12:10:26.466Z,60.32
2022-11-14T12:11:24.480Z,60.81
2022-11-14T12:12:24.452Z,64.57
2022-11-14T12:13:24.447Z,62.05
2022-11-14T12:14:24.436Z,64.63
2022-11-14T12:15:25.426Z,60.22
2022-11-14T12:16:24.455Z,63.09
2022-11-14T12:17:24.414Z,62.60
2022-11-14T12:18:24.405Z,61.56
2022-11-14T12:19:24.403Z,61.47
2022-11-14T12:20:24.391Z,63.34
2022-11-14T12:21:24.402Z,65.28
2022-11-14T12:22:24.384Z,64.93
2022-11-14T12:23:24.373Z,61.32
2022-11-14T12:24:24.359Z,58.98
2022-11-14T12:25:24.383Z,65.23
2022-11-14T12:26:24.342Z,63.63
2022-11-14T12:27:24.366Z,64.04
2022-11-14T12:28:24.327Z,61.18
2022-11-14T12:29:25.499Z,59.37
2022-11-14T12:30:25.349Z,62.83
2022-11-14T12:31:24.304Z,64.16
2022-11-14T12:32:24.296Z,59.03
2022-11-14T12:33:24.290Z,60.64
2022-11-14T12:34:24.378Z,61.57
2022-11-14T12:35:24.403Z,62.07
2022-11-14T12:36:24.267Z,60.62
2022-11-14T12:37:24.293Z,64.47
2022-11-14T12:38:24.248Z,61.99
2022-11-14T12:39:24.245Z,64.33
2022-11-14T12:40:24.231Z,63.24
2022-11-14T12:41:24.248Z,62.01
2022-11-14T12:42:24.214Z,64.52
2022-11-14T12:43:24.207Z,63.82
2022-11-14T12:44:24.219Z,61.42
2022-11-14T12:45:24.189Z,61.22
2022-11-14T12:46:24.205Z,64.71
2022-11-14T12:47:24.176Z,60.94
2022-11-14T12:48:24.163Z,64.36
2022-11-14T12:49:24.157Z,61.84
2022-11-14T12:50:24.150Z,59.86
2022-11-14T12:51:24.218Z,61.00
2022-11-14T12:52:24.139Z,61.24
2022-11-14T12:53:24.146Z,62.56